sensor_id;sensor_type;location;lat;lon;timestamp;P1;durP1;ratioP1;P2;durP2;ratioP2
25758;SDS011;13604;52.496;13.456;2023-10-08T00:01:42;11.13;;;3.90;;
25758;SDS011;13604;52.496;13.456;2023-10-08T00:04:08;15.32;;;3.92;;
25758;SDS011;13604;52.496;13.456;2023-10-08T00:06:35;14.05;;;3.80;;
25758;SDS011;13604;52.496;13.456;2023-10-08T00:09:00;12.05;;;3.45;;
25758;SDS011;13604;52.496;13.456;2023-10-08T00:11:28;14.02;;;4.05;;
25758;SDS011;13604;52.496;13.456;2023-10-08T00:13:54;15.13;;;4.32;;
25758;SDS011;13604;52.496;13.456;2023-10-08T00:16:21;14.07;;;4.55;;
25758;SDS011;13604;52.496;13.456;2023-10-08T00:18:47;13.20;;;4.25;;
25758;SDS011;13604;52.496;13.456;2023-10-08T00:21:16;15.88;;;4.55;;
25758;SDS011;13604;52.496;13.456;2023-10-08T00:23:44;12.75;;;4.28;;
25758;SDS011;13604;52.496;13.456;2023-10-08T00:26:25;15.75;;;4.72;;
25758;SDS011;13604;52.496;13.456;2023-10-08T00:29:02;13.38;;;4.20;;
25758;SDS011;13604;52.496;13.456;2023-10-08T00:31:31;12.82;;;4.57;;
25758;SDS011;13604;52.496;13.456;2023-10-08T00:34:03;12.52;;;3.70;;
25758;SDS011;13604;52.496;13.456;2023-10-08T00:36:30;6.80;;;3.30;;
25758;SDS011;13604;52.496;13.456;2023-10-08T00:38:56;14.85;;;4.20;;
25758;SDS011;13604;52.496;13.456;2023-10-08T00:41:25;15.15;;;4.50;;
25758;SDS011;13604;52.496;13.456;2023-10-08T00:43:55;14.30;;;4.05;;
25758;SDS011;13604;52.496;13.456;2023-10-08T00:46:22;14.15;;;3.55;;
25758;SDS011;13604;52.496;13.456;2023-10-08T00:48:52;11.45;;;2.97;;
25758;SDS011;13604;52.496;13.456;2023-10-08T00:51:25;12.70;;;4.22;;
25758;SDS011;13604;52.496;13.456;2023-10-08T00:53:54;13.63;;;3.50;;
25758;SDS011;13604;52.496;13.456;2023-10-08T00:56:24;16.65;;;3.67;;
25758;SDS011;13604;52.496;13.456;2023-10-08T00:59:09;13.82;;;3.35;;
25758;SDS011;13604;52.496;13.456;2023-10-08T01:01:37;13.40;;;3.40;;
25758;SDS011;13604;52.496;13.456;2023-10-08T01:04:04;14.38;;;3.30;;
25758;SDS011;13604;52.496;13.456;2023-10-08T01:06:36;8.90;;;3.25;;
25758;SDS011;13604;52.496;13.456;2023-10-08T01:09:04;9.05;;;3.10;;
25758;SDS011;13604;52.496;13.456;2023-10-08T01:11:42;11.57;;;2.95;;
25758;SDS011;13604;52.496;13.456;2023-10-08T01:14:11;9.30;;;3.00;;
25758;SDS011;13604;52.496;13.456;2023-10-08T01:16:36;10.60;;;3.60;;
25758;SDS011;13604;52.496;13.456;2023-10-08T01:19:01;10.13;;;3.65;;
25758;SDS011;13604;52.496;13.456;2023-10-08T01:21:30;11.07;;;3.60;;
25758;SDS011;13604;52.496;13.456;2023-10-08T01:24:04;14.23;;;3.92;;
25758;SDS011;13604;52.496;13.456;2023-10-08T01:26:32;12.77;;;3.63;;
25758;SDS011;13604;52.496;13.456;2023-10-08T01:28:59;8.07;;;3.40;;
25758;SDS011;13604;52.496;13.456;2023-10-08T01:31:29;16.38;;;4.82;;
25758;SDS011;13604;52.496;13.456;2023-10-08T01:33:54;11.40;;;4.57;;
25758;SDS011;13604;52.496;13.456;2023-10-08T01:36:21;11.15;;;3.78;;
25758;SDS011;13604;52.496;13.456;2023-10-08T01:38:48;15.35;;;4.00;;
25758;SDS011;13604;52.496;13.456;2023-10-08T01:41:14;13.30;;;4.30;;
25758;SDS011;13604;52.496;13.456;2023-10-08T01:43:47;15.20;;;4.40;;
25758;SDS011;13604;52.496;13.456;2023-10-08T01:46:14;14.48;;;4.03;;
25758;SDS011;13604;52.496;13.456;2023-10-08T01:48:40;14.18;;;4.85;;
25758;SDS011;13604;52.496;13.456;2023-10-08T01:51:09;12.93;;;4.20;;
25758;SDS011;13604;52.496;13.456;2023-10-08T01:53:37;15.93;;;3.13;;
25758;SDS011;13604;52.496;13.456;2023-10-08T01:56:03;13.50;;;4.05;;
25758;SDS011;13604;52.496;13.456;2023-10-08T01:58:29;14.40;;;4.18;;
25758;SDS011;13604;52.496;13.456;2023-10-08T02:00:54;16.05;;;4.20;;
25758;SDS011;13604;52.496;13.456;2023-10-08T02:03:24;12.23;;;3.42;;
25758;SDS011;13604;52.496;13.456;2023-10-08T02:05:49;13.10;;;4.03;;
25758;SDS011;13604;52.496;13.456;2023-10-08T02:08:18;13.73;;;4.38;;
25758;SDS011;13604;52.496;13.456;2023-10-08T02:10:44;17.85;;;4.35;;
25758;SDS011;13604;52.496;13.456;2023-10-08T02:13:12;16.23;;;5.10;;
25758;SDS011;13604;52.496;13.456;2023-10-08T02:15:43;14.00;;;4.03;;
25758;SDS011;13604;52.496;13.456;2023-10-08T02:18:10;15.80;;;4.30;;
25758;SDS011;13604;52.496;13.456;2023-10-08T02:20:36;20.52;;;5.28;;
25758;SDS011;13604;52.496;13.456;2023-10-08T02:23:01;19.48;;;5.13;;
25758;SDS011;13604;52.496;13.456;2023-10-08T02:25:27;15.07;;;5.28;;
25758;SDS011;13604;52.496;13.456;2023-10-08T02:27:52;16.80;;;5.35;;
25758;SDS011;13604;52.496;13.456;2023-10-08T02:30:18;14.35;;;4.80;;
25758;SDS011;13604;52.496;13.456;2023-10-08T02:32:43;17.27;;;5.10;;
25758;SDS011;13604;52.496;13.456;2023-10-08T02:35:09;19.52;;;4.72;;
25758;SDS011;13604;52.496;13.456;2023-10-08T02:37:36;17.15;;;5.25;;
25758;SDS011;13604;52.496;13.456;2023-10-08T02:40:04;15.25;;;5.22;;
25758;SDS011;13604;52.496;13.456;2023-10-08T02:42:39;22.20;;;5.18;;
25758;SDS011;13604;52.496;13.456;2023-10-08T02:45:04;20.52;;;5.25;;
25758;SDS011;13604;52.496;13.456;2023-10-08T02:47:30;17.30;;;4.55;;
25758;SDS011;13604;52.496;13.456;2023-10-08T02:49:56;17.48;;;5.55;;
25758;SDS011;13604;52.496;13.456;2023-10-08T02:52:23;15.50;;;5.00;;
25758;SDS011;13604;52.496;13.456;2023-10-08T02:54:51;13.23;;;4.68;;
25758;SDS011;13604;52.496;13.456;2023-10-08T02:57:18;14.68;;;4.93;;
25758;SDS011;13604;52.496;13.456;2023-10-08T02:59:45;15.80;;;4.55;;
25758;SDS011;13604;52.496;13.456;2023-10-08T03:02:14;13.82;;;4.43;;
25758;SDS011;13604;52.496;13.456;2023-10-08T03:04:46;22.77;;;5.60;;
25758;SDS011;13604;52.496;13.456;2023-10-08T03:07:16;12.80;;;5.00;;
25758;SDS011;13604;52.496;13.456;2023-10-08T03:09:57;15.02;;;4.57;;
25758;SDS011;13604;52.496;13.456;2023-10-08T03:12:42;14.63;;;5.90;;
25758;SDS011;13604;52.496;13.456;2023-10-08T03:15:08;14.63;;;5.40;;
25758;SDS011;13604;52.496;13.456;2023-10-08T03:17:38;18.65;;;6.22;;
25758;SDS011;13604;52.496;13.456;2023-10-08T03:20:09;16.00;;;5.60;;
25758;SDS011;13604;52.496;13.456;2023-10-08T03:23:01;13.90;;;5.03;;
25758;SDS011;13604;52.496;13.456;2023-10-08T03:25:30;14.70;;;5.68;;
25758;SDS011;13604;52.496;13.456;2023-10-08T03:27:55;15.15;;;5.03;;
25758;SDS011;13604;52.496;13.456;2023-10-08T03:30:24;16.02;;;4.78;;
25758;SDS011;13604;52.496;13.456;2023-10-08T03:32:51;20.15;;;5.40;;
25758;SDS011;13604;52.496;13.456;2023-10-08T03:35:20;18.67;;;5.95;;
25758;SDS011;13604;52.496;13.456;2023-10-08T03:37:52;11.88;;;4.72;;
25758;SDS011;13604;52.496;13.456;2023-10-08T03:40:19;22.35;;;5.47;;
25758;SDS011;13604;52.496;13.456;2023-10-08T03:42:57;20.13;;;5.15;;
25758;SDS011;13604;52.496;13.456;2023-10-08T03:45:22;22.67;;;4.95;;
25758;SDS011;13604;52.496;13.456;2023-10-08T03:48:06;12.33;;;4.23;;
25758;SDS011;13604;52.496;13.456;2023-10-08T03:50:33;15.95;;;4.75;;
25758;SDS011;13604;52.496;13.456;2023-10-08T03:53:06;10.77;;;3.88;;
25758;SDS011;13604;52.496;13.456;2023-10-08T03:55:37;17.30;;;4.18;;
25758;SDS011;13604;52.496;13.456;2023-10-08T03:58:05;21.70;;;5.13;;
25758;SDS011;13604;52.496;13.456;2023-10-08T04:00:54;19.58;;;4.40;;
25758;SDS011;13604;52.496;13.456;2023-10-08T04:03:36;16.10;;;4.50;;
25758;SDS011;13604;52.496;13.456;2023-10-08T04:06:17;15.02;;;4.20;;
25758;SDS011;13604;52.496;13.456;2023-10-08T04:08:55;14.50;;;4.18;;
25758;SDS011;13604;52.496;13.456;2023-10-08T04:11:37;15.32;;;5.05;;
25758;SDS011;13604;52.496;13.456;2023-10-08T04:14:29;20.75;;;4.40;;
25758;SDS011;13604;52.496;13.456;2023-10-08T04:16:55;17.40;;;4.45;;
25758;SDS011;13604;52.496;13.456;2023-10-08T04:19:22;9.43;;;3.85;;
25758;SDS011;13604;52.496;13.456;2023-10-08T04:21:52;12.60;;;4.13;;
25758;SDS011;13604;52.496;13.456;2023-10-08T04:24:24;21.85;;;4.60;;
25758;SDS011;13604;52.496;13.456;2023-10-08T04:26:59;16.08;;;4.95;;
25758;SDS011;13604;52.496;13.456;2023-10-08T04:29:27;15.48;;;4.35;;
25758;SDS011;13604;52.496;13.456;2023-10-08T04:31:56;14.75;;;4.43;;
25758;SDS011;13604;52.496;13.456;2023-10-08T04:34:33;10.25;;;4.22;;
25758;SDS011;13604;52.496;13.456;2023-10-08T04:37:01;18.27;;;3.97;;
25758;SDS011;13604;52.496;13.456;2023-10-08T04:39:28;9.18;;;3.70;;
25758;SDS011;13604;52.496;13.456;2023-10-08T04:42:00;15.27;;;4.10;;
25758;SDS011;13604;52.496;13.456;2023-10-08T04:44:35;14.57;;;4.85;;
25758;SDS011;13604;52.496;13.456;2023-10-08T04:47:03;15.30;;;4.93;;
25758;SDS011;13604;52.496;13.456;2023-10-08T04:49:32;10.25;;;3.92;;
25758;SDS011;13604;52.496;13.456;2023-10-08T04:52:00;20.80;;;4.80;;
25758;SDS011;13604;52.496;13.456;2023-10-08T04:54:34;15.07;;;4.72;;
25758;SDS011;13604;52.496;13.456;2023-10-08T04:57:05;15.48;;;4.30;;
25758;SDS011;13604;52.496;13.456;2023-10-08T04:59:31;14.40;;;4.30;;
25758;SDS011;13604;52.496;13.456;2023-10-08T05:01:58;11.50;;;3.85;;
25758;SDS011;13604;52.496;13.456;2023-10-08T05:04:47;10.65;;;3.88;;
25758;SDS011;13604;52.496;13.456;2023-10-08T05:07:17;15.38;;;4.28;;
25758;SDS011;13604;52.496;13.456;2023-10-08T05:09:46;18.35;;;4.55;;
25758;SDS011;13604;52.496;13.456;2023-10-08T05:12:17;21.38;;;4.72;;
25758;SDS011;13604;52.496;13.456;2023-10-08T05:15:00;12.52;;;4.60;;
25758;SDS011;13604;52.496;13.456;2023-10-08T05:17:47;14.45;;;3.90;;
25758;SDS011;13604;52.496;13.456;2023-10-08T05:20:15;19.35;;;4.65;;
25758;SDS011;13604;52.496;13.456;2023-10-08T05:23:11;7.07;;;3.90;;
25758;SDS011;13604;52.496;13.456;2023-10-08T05:25:53;12.23;;;4.13;;
25758;SDS011;13604;52.496;13.456;2023-10-08T05:28:40;11.35;;;4.38;;
25758;SDS011;13604;52.496;13.456;2023-10-08T05:31:23;13.10;;;4.57;;
25758;SDS011;13604;52.496;13.456;2023-10-08T05:34:07;17.60;;;4.88;;
25758;SDS011;13604;52.496;13.456;2023-10-08T05:36:40;18.23;;;4.95;;
25758;SDS011;13604;52.496;13.456;2023-10-08T05:39:24;16.10;;;4.97;;
25758;SDS011;13604;52.496;13.456;2023-10-08T05:41:49;15.65;;;4.43;;
25758;SDS011;13604;52.496;13.456;2023-10-08T05:44:30;11.25;;;4.65;;
25758;SDS011;13604;52.496;13.456;2023-10-08T05:49:49;16.20;;;5.65;;
25758;SDS011;13604;52.496;13.456;2023-10-08T05:52:34;14.50;;;4.40;;
25758;SDS011;13604;52.496;13.456;2023-10-08T05:55:15;12.95;;;4.85;;
25758;SDS011;13604;52.496;13.456;2023-10-08T05:57:50;17.48;;;5.28;;
25758;SDS011;13604;52.496;13.456;2023-10-08T06:00:27;13.68;;;5.30;;
25758;SDS011;13604;52.496;13.456;2023-10-08T06:03:11;14.60;;;4.45;;
25758;SDS011;13604;52.496;13.456;2023-10-08T06:05:56;14.85;;;4.60;;
25758;SDS011;13604;52.496;13.456;2023-10-08T06:08:42;8.63;;;4.47;;
25758;SDS011;13604;52.496;13.456;2023-10-08T06:11:20;13.85;;;4.57;;
25758;SDS011;13604;52.496;13.456;2023-10-08T06:14:04;10.18;;;3.05;;
25758;SDS011;13604;52.496;13.456;2023-10-08T06:19:07;10.23;;;2.92;;
25758;SDS011;13604;52.496;13.456;2023-10-08T06:21:34;9.55;;;3.92;;
25758;SDS011;13604;52.496;13.456;2023-10-08T06:24:02;6.63;;;3.00;;
25758;SDS011;13604;52.496;13.456;2023-10-08T06:26:29;7.53;;;3.22;;
25758;SDS011;13604;52.496;13.456;2023-10-08T06:28:59;9.05;;;3.17;;
25758;SDS011;13604;52.496;13.456;2023-10-08T06:31:24;11.32;;;3.58;;
25758;SDS011;13604;52.496;13.456;2023-10-08T06:33:51;6.32;;;2.70;;
25758;SDS011;13604;52.496;13.456;2023-10-08T06:36:17;13.85;;;2.88;;
25758;SDS011;13604;52.496;13.456;2023-10-08T06:38:48;7.45;;;2.35;;
25758;SDS011;13604;52.496;13.456;2023-10-08T06:41:14;6.55;;;2.63;;
25758;SDS011;13604;52.496;13.456;2023-10-08T06:43:42;10.57;;;3.17;;
25758;SDS011;13604;52.496;13.456;2023-10-08T06:46:11;9.13;;;2.72;;
25758;SDS011;13604;52.496;13.456;2023-10-08T06:48:37;12.00;;;2.47;;
25758;SDS011;13604;52.496;13.456;2023-10-08T06:51:07;6.07;;;2.65;;
25758;SDS011;13604;52.496;13.456;2023-10-08T06:53:42;6.53;;;2.35;;
25758;SDS011;13604;52.496;13.456;2023-10-08T06:56:10;4.47;;;2.22;;
25758;SDS011;13604;52.496;13.456;2023-10-08T06:58:37;6.97;;;2.22;;
25758;SDS011;13604;52.496;13.456;2023-10-08T07:01:03;7.15;;;2.35;;
25758;SDS011;13604;52.496;13.456;2023-10-08T07:03:34;6.20;;;2.30;;
25758;SDS011;13604;52.496;13.456;2023-10-08T07:06:00;8.77;;;2.17;;
25758;SDS011;13604;52.496;13.456;2023-10-08T07:08:28;6.53;;;1.80;;
25758;SDS011;13604;52.496;13.456;2023-10-08T07:10:58;4.07;;;1.80;;
25758;SDS011;13604;52.496;13.456;2023-10-08T07:13:26;4.35;;;1.60;;
25758;SDS011;13604;52.496;13.456;2023-10-08T07:15:54;3.35;;;1.58;;
25758;SDS011;13604;52.496;13.456;2023-10-08T07:18:20;4.20;;;2.05;;
25758;SDS011;13604;52.496;13.456;2023-10-08T07:20:52;3.15;;;1.60;;
25758;SDS011;13604;52.496;13.456;2023-10-08T07:23:22;3.85;;;1.75;;
25758;SDS011;13604;52.496;13.456;2023-10-08T07:25:53;4.80;;;1.70;;
25758;SDS011;13604;52.496;13.456;2023-10-08T07:28:36;3.50;;;1.65;;
25758;SDS011;13604;52.496;13.456;2023-10-08T07:31:16;4.95;;;1.88;;
25758;SDS011;13604;52.496;13.456;2023-10-08T07:33:46;6.32;;;2.17;;
25758;SDS011;13604;52.496;13.456;2023-10-08T07:36:13;4.70;;;1.90;;
25758;SDS011;13604;52.496;13.456;2023-10-08T07:38:42;1.90;;;1.35;;
25758;SDS011;13604;52.496;13.456;2023-10-08T07:41:10;10.02;;;1.73;;
25758;SDS011;13604;52.496;13.456;2023-10-08T07:43:37;3.85;;;1.50;;
25758;SDS011;13604;52.496;13.456;2023-10-08T07:46:03;5.63;;;1.80;;
25758;SDS011;13604;52.496;13.456;2023-10-08T07:48:30;5.80;;;1.75;;
25758;SDS011;13604;52.496;13.456;2023-10-08T07:50:56;3.28;;;1.38;;
25758;SDS011;13604;52.496;13.456;2023-10-08T07:53:23;3.33;;;1.27;;
25758;SDS011;13604;52.496;13.456;2023-10-08T07:55:49;3.75;;;1.80;;
25758;SDS011;13604;52.496;13.456;2023-10-08T07:58:16;3.92;;;1.60;;
25758;SDS011;13604;52.496;13.456;2023-10-08T08:00:42;3.20;;;1.50;;
25758;SDS011;13604;52.496;13.456;2023-10-08T08:03:16;6.03;;;1.90;;
25758;SDS011;13604;52.496;13.456;2023-10-08T08:05:45;4.20;;;1.52;;
25758;SDS011;13604;52.496;13.456;2023-10-08T08:08:11;7.68;;;1.90;;
25758;SDS011;13604;52.496;13.456;2023-10-08T08:10:42;5.63;;;1.40;;
25758;SDS011;13604;52.496;13.456;2023-10-08T08:13:08;5.00;;;1.95;;
25758;SDS011;13604;52.496;13.456;2023-10-08T08:15:34;3.58;;;1.33;;
25758;SDS011;13604;52.496;13.456;2023-10-08T08:18:06;3.75;;;1.48;;
25758;SDS011;13604;52.496;13.456;2023-10-08T08:20:32;1.63;;;1.10;;
25758;SDS011;13604;52.496;13.456;2023-10-08T08:23:03;2.63;;;1.38;;
25758;SDS011;13604;52.496;13.456;2023-10-08T08:25:36;2.63;;;1.13;;
25758;SDS011;13604;52.496;13.456;2023-10-08T08:28:14;2.92;;;1.13;;
25758;SDS011;13604;52.496;13.456;2023-10-08T08:30:45;1.63;;;1.00;;
25758;SDS011;13604;52.496;13.456;2023-10-08T08:33:12;2.35;;;1.23;;
25758;SDS011;13604;52.496;13.456;2023-10-08T08:35:38;7.07;;;1.75;;
25758;SDS011;13604;52.496;13.456;2023-10-08T08:38:04;2.80;;;1.20;;
25758;SDS011;13604;52.496;13.456;2023-10-08T08:40:30;3.67;;;1.13;;
25758;SDS011;13604;52.496;13.456;2023-10-08T08:42:57;1.55;;;0.95;;
25758;SDS011;13604;52.496;13.456;2023-10-08T08:45:27;1.70;;;0.90;;
25758;SDS011;13604;52.496;13.456;2023-10-08T08:47:56;1.20;;;0.95;;
25758;SDS011;13604;52.496;13.456;2023-10-08T08:50:22;3.88;;;0.73;;
25758;SDS011;13604;52.496;13.456;2023-10-08T08:52:48;1.52;;;1.00;;
25758;SDS011;13604;52.496;13.456;2023-10-08T08:55:13;2.10;;;1.02;;
25758;SDS011;13604;52.496;13.456;2023-10-08T08:57:43;1.52;;;1.00;;
25758;SDS011;13604;52.496;13.456;2023-10-08T09:00:12;2.38;;;1.30;;
25758;SDS011;13604;52.496;13.456;2023-10-08T09:02:39;2.78;;;1.13;;
25758;SDS011;13604;52.496;13.456;2023-10-08T09:05:05;1.92;;;0.90;;
25758;SDS011;13604;52.496;13.456;2023-10-08T09:07:51;1.88;;;1.20;;
25758;SDS011;13604;52.496;13.456;2023-10-08T09:10:24;1.50;;;1.02;;
25758;SDS011;13604;52.496;13.456;2023-10-08T09:12:54;2.75;;;1.25;;
25758;SDS011;13604;52.496;13.456;2023-10-08T09:15:24;2.05;;;1.13;;
25758;SDS011;13604;52.496;13.456;2023-10-08T09:17:51;1.90;;;1.13;;
25758;SDS011;13604;52.496;13.456;2023-10-08T09:20:17;1.42;;;1.05;;
25758;SDS011;13604;52.496;13.456;2023-10-08T09:22:44;2.13;;;1.00;;
25758;SDS011;13604;52.496;13.456;2023-10-08T09:25:12;1.30;;;0.82;;
25758;SDS011;13604;52.496;13.456;2023-10-08T09:27:50;3.78;;;1.02;;
25758;SDS011;13604;52.496;13.456;2023-10-08T09:30:20;1.05;;;0.65;;
25758;SDS011;13604;52.496;13.456;2023-10-08T09:32:45;0.82;;;0.70;;
25758;SDS011;13604;52.496;13.456;2023-10-08T09:35:14;1.25;;;1.08;;
25758;SDS011;13604;52.496;13.456;2023-10-08T09:37:40;1.83;;;0.90;;
25758;SDS011;13604;52.496;13.456;2023-10-08T09:40:06;3.05;;;0.90;;
25758;SDS011;13604;52.496;13.456;2023-10-08T09:42:39;0.73;;;0.70;;
25758;SDS011;13604;52.496;13.456;2023-10-08T09:45:07;2.00;;;0.77;;
25758;SDS011;13604;52.496;13.456;2023-10-08T09:47:34;2.53;;;0.90;;
25758;SDS011;13604;52.496;13.456;2023-10-08T09:50:03;1.20;;;0.90;;
25758;SDS011;13604;52.496;13.456;2023-10-08T09:52:43;1.02;;;0.73;;
25758;SDS011;13604;52.496;13.456;2023-10-08T09:55:21;1.15;;;0.80;;
25758;SDS011;13604;52.496;13.456;2023-10-08T09:57:47;0.70;;;0.68;;
25758;SDS011;13604;52.496;13.456;2023-10-08T10:00:16;1.20;;;0.80;;
25758;SDS011;13604;52.496;13.456;2023-10-08T10:02:43;1.58;;;0.95;;
25758;SDS011;13604;52.496;13.456;2023-10-08T10:05:10;2.58;;;0.80;;
25758;SDS011;13604;52.496;13.456;2023-10-08T10:07:37;0.80;;;0.60;;
25758;SDS011;13604;52.496;13.456;2023-10-08T10:10:07;1.38;;;0.88;;
25758;SDS011;13604;52.496;13.456;2023-10-08T10:12:51;1.15;;;0.70;;
25758;SDS011;13604;52.496;13.456;2023-10-08T10:15:16;0.85;;;0.70;;
25758;SDS011;13604;52.496;13.456;2023-10-08T10:17:46;1.13;;;0.85;;
25758;SDS011;13604;52.496;13.456;2023-10-08T10:20:12;0.75;;;0.75;;
25758;SDS011;13604;52.496;13.456;2023-10-08T10:22:38;1.17;;;0.90;;
25758;SDS011;13604;52.496;13.456;2023-10-08T10:25:04;1.15;;;1.00;;
25758;SDS011;13604;52.496;13.456;2023-10-08T10:28:07;0.82;;;0.60;;
25758;SDS011;13604;52.496;13.456;2023-10-08T10:30:31;2.10;;;0.70;;
25758;SDS011;13604;52.496;13.456;2023-10-08T10:32:59;0.85;;;0.70;;
25758;SDS011;13604;52.496;13.456;2023-10-08T10:35:25;0.80;;;0.80;;
25758;SDS011;13604;52.496;13.456;2023-10-08T10:37:52;1.23;;;0.80;;
25758;SDS011;13604;52.496;13.456;2023-10-08T10:40:20;1.10;;;0.77;;
25758;SDS011;13604;52.496;13.456;2023-10-08T10:43:04;2.45;;;0.80;;
25758;SDS011;13604;52.496;13.456;2023-10-08T10:45:31;0.75;;;0.75;;
25758;SDS011;13604;52.496;13.456;2023-10-08T10:50:47;1.65;;;0.82;;
25758;SDS011;13604;52.496;13.456;2023-10-08T10:53:38;1.90;;;0.90;;
25758;SDS011;13604;52.496;13.456;2023-10-08T10:56:32;1.45;;;0.85;;
25758;SDS011;13604;52.496;13.456;2023-10-08T10:59:05;2.42;;;1.00;;
25758;SDS011;13604;52.496;13.456;2023-10-08T11:01:41;0.90;;;0.77;;
25758;SDS011;13604;52.496;13.456;2023-10-08T11:04:11;1.45;;;0.88;;
25758;SDS011;13604;52.496;13.456;2023-10-08T11:06:41;0.88;;;0.70;;
25758;SDS011;13604;52.496;13.456;2023-10-08T11:09:10;2.95;;;0.93;;
25758;SDS011;13604;52.496;13.456;2023-10-08T11:11:56;1.77;;;1.13;;
25758;SDS011;13604;52.496;13.456;2023-10-08T11:14:25;2.78;;;1.00;;
25758;SDS011;13604;52.496;13.456;2023-10-08T11:16:50;1.70;;;1.02;;
25758;SDS011;13604;52.496;13.456;2023-10-08T11:19:16;2.25;;;1.00;;
25758;SDS011;13604;52.496;13.456;2023-10-08T11:21:51;1.83;;;1.10;;
25758;SDS011;13604;52.496;13.456;2023-10-08T11:24:31;2.80;;;0.90;;
25758;SDS011;13604;52.496;13.456;2023-10-08T11:27:02;1.23;;;1.02;;
25758;SDS011;13604;52.496;13.456;2023-10-08T11:29:43;0.95;;;0.68;;
25758;SDS011;13604;52.496;13.456;2023-10-08T11:32:11;1.45;;;0.90;;
25758;SDS011;13604;52.496;13.456;2023-10-08T11:34:38;1.08;;;0.80;;
25758;SDS011;13604;52.496;13.456;2023-10-08T11:37:04;0.73;;;0.73;;
25758;SDS011;13604;52.496;13.456;2023-10-08T11:39:44;2.80;;;0.90;;
25758;SDS011;13604;52.496;13.456;2023-10-08T11:42:12;3.05;;;1.15;;
25758;SDS011;13604;52.496;13.456;2023-10-08T11:45:05;2.58;;;1.13;;
25758;SDS011;13604;52.496;13.456;2023-10-08T11:47:47;3.55;;;1.23;;
25758;SDS011;13604;52.496;13.456;2023-10-08T11:50:26;3.33;;;1.08;;
25758;SDS011;13604;52.496;13.456;2023-10-08T11:52:58;16.88;;;2.80;;
25758;SDS011;13604;52.496;13.456;2023-10-08T11:55:28;2.17;;;1.00;;
25758;SDS011;13604;52.496;13.456;2023-10-08T11:57:54;5.68;;;1.25;;
25758;SDS011;13604;52.496;13.456;2023-10-08T12:00:19;6.95;;;1.42;;
25758;SDS011;13604;52.496;13.456;2023-10-08T12:02:48;2.42;;;1.25;;
25758;SDS011;13604;52.496;13.456;2023-10-08T12:05:14;2.08;;;1.08;;
25758;SDS011;13604;52.496;13.456;2023-10-08T12:07:46;4.47;;;1.45;;
25758;SDS011;13604;52.496;13.456;2023-10-08T12:10:12;1.63;;;1.02;;
25758;SDS011;13604;52.496;13.456;2023-10-08T12:12:37;4.60;;;1.30;;
25758;SDS011;13604;52.496;13.456;2023-10-08T12:15:02;1.90;;;0.90;;
25758;SDS011;13604;52.496;13.456;2023-10-08T12:17:28;1.70;;;1.17;;
25758;SDS011;13604;52.496;13.456;2023-10-08T12:20:04;2.35;;;0.95;;
25758;SDS011;13604;52.496;13.456;2023-10-08T12:22:49;0.77;;;0.77;;
25758;SDS011;13604;52.496;13.456;2023-10-08T12:25:15;1.05;;;0.77;;
25758;SDS011;13604;52.496;13.456;2023-10-08T12:27:40;2.58;;;0.98;;
25758;SDS011;13604;52.496;13.456;2023-10-08T12:30:05;1.55;;;0.80;;
25758;SDS011;13604;52.496;13.456;2023-10-08T12:32:35;1.15;;;0.90;;
25758;SDS011;13604;52.496;13.456;2023-10-08T12:35:02;1.90;;;1.08;;
25758;SDS011;13604;52.496;13.456;2023-10-08T12:37:28;1.85;;;1.08;;
25758;SDS011;13604;52.496;13.456;2023-10-08T12:39:55;1.30;;;1.00;;
25758;SDS011;13604;52.496;13.456;2023-10-08T12:42:36;1.67;;;1.05;;
25758;SDS011;13604;52.496;13.456;2023-10-08T12:45:03;1.35;;;1.00;;
25758;SDS011;13604;52.496;13.456;2023-10-08T12:47:36;1.52;;;0.98;;
25758;SDS011;13604;52.496;13.456;2023-10-08T12:50:02;1.77;;;1.27;;
25758;SDS011;13604;52.496;13.456;2023-10-08T12:52:32;1.70;;;1.13;;
25758;SDS011;13604;52.496;13.456;2023-10-08T12:54:59;3.25;;;1.23;;
25758;SDS011;13604;52.496;13.456;2023-10-08T12:57:33;2.67;;;1.20;;
25758;SDS011;13604;52.496;13.456;2023-10-08T12:59:59;1.83;;;0.85;;
25758;SDS011;13604;52.496;13.456;2023-10-08T13:02:25;1.42;;;1.00;;
25758;SDS011;13604;52.496;13.456;2023-10-08T13:04:53;2.33;;;0.90;;
25758;SDS011;13604;52.496;13.456;2023-10-08T13:07:20;0.90;;;0.82;;
25758;SDS011;13604;52.496;13.456;2023-10-08T13:09:47;1.02;;;0.90;;
25758;SDS011;13604;52.496;13.456;2023-10-08T13:12:12;3.83;;;1.33;;
25758;SDS011;13604;52.496;13.456;2023-10-08T13:14:40;1.30;;;0.93;;
25758;SDS011;13604;52.496;13.456;2023-10-08T13:17:05;2.22;;;0.95;;
25758;SDS011;13604;52.496;13.456;2023-10-08T13:19:35;1.17;;;0.90;;
25758;SDS011;13604;52.496;13.456;2023-10-08T13:22:01;1.80;;;1.00;;
25758;SDS011;13604;52.496;13.456;2023-10-08T13:24:31;2.50;;;1.13;;
25758;SDS011;13604;52.496;13.456;2023-10-08T13:26:56;1.27;;;0.93;;
25758;SDS011;13604;52.496;13.456;2023-10-08T13:29:23;1.25;;;0.70;;
25758;SDS011;13604;52.496;13.456;2023-10-08T13:31:51;0.95;;;0.85;;
25758;SDS011;13604;52.496;13.456;2023-10-08T13:34:17;1.15;;;0.88;;
25758;SDS011;13604;52.496;13.456;2023-10-08T13:36:43;1.33;;;0.87;;
25758;SDS011;13604;52.496;13.456;2023-10-08T13:39:11;1.30;;;1.00;;
25758;SDS011;13604;52.496;13.456;2023-10-08T13:41:43;1.95;;;1.05;;
25758;SDS011;13604;52.496;13.456;2023-10-08T13:44:11;1.40;;;1.10;;
25758;SDS011;13604;52.496;13.456;2023-10-08T13:46:37;1.83;;;1.00;;
25758;SDS011;13604;52.496;13.456;2023-10-08T13:49:05;1.92;;;0.80;;
25758;SDS011;13604;52.496;13.456;2023-10-08T13:51:31;3.20;;;0.97;;
25758;SDS011;13604;52.496;13.456;2023-10-08T13:53:59;1.00;;;0.80;;
25758;SDS011;13604;52.496;13.456;2023-10-08T13:56:24;4.30;;;0.98;;
25758;SDS011;13604;52.496;13.456;2023-10-08T13:58:51;1.58;;;0.90;;
25758;SDS011;13604;52.496;13.456;2023-10-08T14:02:34;1.75;;;0.88;;
25758;SDS011;13604;52.496;13.456;2023-10-08T14:05:00;1.08;;;0.98;;
25758;SDS011;13604;52.496;13.456;2023-10-08T14:07:28;1.75;;;0.98;;
25758;SDS011;13604;52.496;13.456;2023-10-08T14:09:53;3.50;;;1.30;;
25758;SDS011;13604;52.496;13.456;2023-10-08T14:12:18;5.88;;;1.27;;
25758;SDS011;13604;52.496;13.456;2023-10-08T14:14:44;1.42;;;0.85;;
25758;SDS011;13604;52.496;13.456;2023-10-08T14:17:11;0.93;;;0.70;;
25758;SDS011;13604;52.496;13.456;2023-10-08T14:20:02;1.50;;;1.05;;
25758;SDS011;13604;52.496;13.456;2023-10-08T14:22:37;1.23;;;0.70;;
25758;SDS011;13604;52.496;13.456;2023-10-08T14:25:03;1.98;;;1.38;;
25758;SDS011;13604;52.496;13.456;2023-10-08T14:27:36;1.23;;;1.05;;
25758;SDS011;13604;52.496;13.456;2023-10-08T14:30:05;2.35;;;1.00;;
25758;SDS011;13604;52.496;13.456;2023-10-08T14:32:41;2.47;;;1.20;;
25758;SDS011;13604;52.496;13.456;2023-10-08T14:35:10;1.27;;;1.00;;
25758;SDS011;13604;52.496;13.456;2023-10-08T14:37:57;3.90;;;1.15;;
25758;SDS011;13604;52.496;13.456;2023-10-08T14:40:42;3.35;;;0.98;;
25758;SDS011;13604;52.496;13.456;2023-10-08T14:43:26;1.98;;;1.10;;
25758;SDS011;13604;52.496;13.456;2023-10-08T14:45:54;2.17;;;1.25;;
25758;SDS011;13604;52.496;13.456;2023-10-08T14:48:19;1.25;;;0.98;;
25758;SDS011;13604;52.496;13.456;2023-10-08T14:50:45;1.80;;;1.05;;
25758;SDS011;13604;52.496;13.456;2023-10-08T14:53:11;2.75;;;1.70;;
25758;SDS011;13604;52.496;13.456;2023-10-08T14:55:36;4.00;;;1.13;;
25758;SDS011;13604;52.496;13.456;2023-10-08T14:58:02;2.15;;;1.10;;